Pictou, Canada
Current Conditions -  °F | °C
As of 6:00 AM on Saturday 22 Nov 2014 (Local Time) from CYYG Reporting Station
Overcast Overcast  
Wind Chill: 13°   Ceiling: 2200
Heat Index: 19°   Visibility: 15mi
Dew Point: 12°   Wind: 5mph
Humidity: 74%   Direction: 290°WNW
Pressure: 30.08"   Gusts: NA
Location:  45.67°N, 62.7°W
Report Text: CYYG 221000Z 29004KT 240V310 15SM OVC022 M07/M11 A3008 RMK SC8 SLP188
Loading
Personal Weather Stations






























Interactive Weather Map New forecast layout! Learn more

10-Day Weather Forecast

Advertisements
Track Severe Weather on mobile